Time;durP1;ratioP1;P1;durP2;ratioP2;P2;SDS_P1;SDS_P2;PMS_P1;PMS_P2;Temp;Humidity;BMP_temperature;BMP_pressure;BME280_temperature;BME280_humidity;BME280_pressure;Samples;Min_cycle;Max_cycle;Signal;HPM_P1;HPM_P2
2022/07/20 00:01:58;;;;;;;4.70;2.20;;;;;;;22.05;42.84;100201.16;5069766;28;20024;-37
2022/07/20 00:04:23;;;;;;;2.58;2.10;;;;;;;22.13;42.44;100205.22;5069317;28;20469;-36
2022/07/20 00:06:49;;;;;;;3.70;2.10;;;;;;;22.13;42.71;100207.94;5069595;28;20111;-36
2022/07/20 00:11:58;;;;;;;4.15;2.47;;;;;;;22.31;42.05;100217.47;5069739;28;20032;-37
2022/07/20 00:14:24;;;;;;;3.03;2.10;;;;;;;22.41;41.54;100219.38;5069212;28;20435;-37
2022/07/20 00:16:49;;;;;;;3.03;2.10;;;;;;;22.48;41.72;100217.19;5069587;28;20108;-36
2022/07/20 00:19:15;;;;;;;3.08;2.00;;;;;;;22.55;41.74;100217.75;5069314;28;20028;-36
2022/07/20 00:21:40;;;;;;;2.55;2.00;;;;;;;22.58;41.16;100217.22;5069575;28;20102;-37
2022/07/20 00:24:06;;;;;;;4.35;2.17;;;;;;;22.62;41.33;100212.06;5071737;28;20016;-38
2022/07/20 00:26:31;;;;;;;4.70;2.28;;;;;;;22.70;40.84;100219.63;5073088;28;20025;-35
2022/07/20 00:28:57;;;;;;;3.17;2.13;;;;;;;22.68;41.10;100227.25;5087489;28;20012;-37
2022/07/20 00:31:22;;;;;;;4.90;1.98;;;;;;;22.69;41.46;100226.13;5093306;28;20027;-36
2022/07/20 00:33:49;;;;;;;3.10;2.20;;;;;;;22.70;41.40;100227.78;5092518;28;20479;-37
2022/07/20 00:36:15;;;;;;;3.08;2.05;;;;;;;22.68;41.50;100223.72;5093064;28;20137;-37
2022/07/20 00:38:41;;;;;;;4.53;2.20;;;;;;;22.73;41.42;100229.97;5092609;28;20468;-37
2022/07/20 00:41:07;;;;;;;3.55;2.28;;;;;;;22.68;41.26;100226.44;5092512;28;20068;-36
2022/07/20 00:44:03;;;;;;;3.25;2.00;;;;;;;22.72;41.54;100224.81;5092729;28;20020;-36
2022/07/20 00:46:31;;;;;;;4.40;2.17;;;;;;;22.74;41.62;100236.19;5092567;28;20084;-37
2022/07/20 00:48:57;;;;;;;5.10;2.13;;;;;;;22.67;41.89;100232.94;5093202;28;20097;-37
2022/07/20 00:51:23;;;;;;;4.03;2.30;;;;;;;22.63;42.29;100227.22;5092446;28;20052;-37
2022/07/20 00:53:49;;;;;;;6.95;2.40;;;;;;;22.66;42.19;100232.13;5092472;28;20157;-36
2022/07/20 00:56:16;;;;;;;4.35;2.40;;;;;;;22.68;41.80;100227.25;5092926;28;20030;-36
2022/07/20 00:58:42;;;;;;;4.82;2.20;;;;;;;22.65;42.06;100225.88;5092474;28;20015;-37
2022/07/20 01:01:08;;;;;;;2.90;2.30;;;;;;;22.62;41.79;100221.00;5092538;28;20036;-37
2022/07/20 01:03:33;;;;;;;3.55;2.40;;;;;;;22.67;41.59;100220.19;5092601;28;20526;-37
2022/07/20 01:05:59;;;;;;;3.00;2.28;;;;;;;22.71;41.74;100215.03;5092848;28;20024;-37
2022/07/20 01:08:26;;;;;;;3.13;2.30;;;;;;;22.75;41.27;100211.50;5093004;28;20024;-37
2022/07/20 01:10:52;;;;;;;6.13;2.72;;;;;;;22.78;41.44;100219.09;5093306;28;20020;-36
2022/07/20 01:13:17;;;;;;;3.90;2.20;;;;;;;22.75;41.87;100222.34;5092442;28;20105;-36
2022/07/20 01:15:43;;;;;;;4.30;2.53;;;;;;;22.72;42.04;100213.94;5092892;28;20016;-36
2022/07/20 01:18:08;;;;;;;6.50;2.50;;;;;;;22.76;41.78;100207.69;5092856;28;20052;-37
2022/07/20 01:20:35;;;;;;;6.45;2.72;;;;;;;22.74;41.57;100219.91;5092921;28;20096;-37
2022/07/20 01:23:00;;;;;;;4.40;2.42;;;;;;;22.67;41.87;100211.22;5092476;28;20020;-36
2022/07/20 01:25:26;;;;;;;3.08;2.50;;;;;;;22.65;41.90;100209.59;5091608;28;20069;-37
2022/07/20 01:27:55;;;;;;;7.40;2.50;;;;;;;22.63;42.03;100208.25;5092445;28;20016;-37
2022/07/20 01:30:20;;;;;;;3.95;2.60;;;;;;;22.70;41.78;100199.84;5092836;28;20024;-36
2022/07/20 01:32:46;;;;;;;2.63;2.28;;;;;;;22.68;41.69;100208.25;5092244;28;20032;-38
2022/07/20 01:35:11;;;;;;;3.08;2.42;;;;;;;22.60;41.50;100195.25;5092625;28;20024;-37
2022/07/20 01:37:37;;;;;;;5.18;2.30;;;;;;;22.60;41.93;100206.91;5088881;28;20013;-37
2022/07/20 01:40:03;;;;;;;5.50;2.30;;;;;;;22.66;42.04;100207.72;5072422;28;20077;-35
2022/07/20 01:42:28;;;;;;;2.30;2.10;;;;;;;22.70;41.88;100206.09;5072380;28;20024;-38
2022/07/20 01:44:53;;;;;;;4.13;2.25;;;;;;;22.69;41.99;100203.63;5071858;28;20052;-36
2022/07/20 01:47:19;;;;;;;3.85;2.22;;;;;;;22.68;41.69;100196.59;5072154;28;20025;-37
2022/07/20 01:49:44;;;;;;;3.72;2.20;;;;;;;22.63;41.84;100208.25;5071929;28;20024;-36
2022/07/20 01:52:10;;;;;;;3.72;2.50;;;;;;;22.57;42.18;100209.34;5072095;28;20127;-36
2022/07/20 01:54:35;;;;;;;5.88;2.67;;;;;;;22.63;42.15;100214.47;5071444;28;20024;-37
2022/07/20 01:57:00;;;;;;;5.85;2.42;;;;;;;22.62;42.58;100206.63;5072095;28;20021;-37
2022/07/20 01:59:26;;;;;;;3.92;2.30;;;;;;;22.49;42.90;100213.41;5070767;28;20028;-37
2022/07/20 02:01:51;;;;;;;4.57;2.85;;;;;;;21.79;44.27;100208.41;5071722;28;20039;-37
2022/07/20 02:04:17;;;;;;;5.07;2.60;;;;;;;21.80;44.60;100206.50;5071529;28;20449;-37
2022/07/20 02:06:42;;;;;;;5.18;2.53;;;;;;;21.94;44.30;100213.03;5071453;28;20019;-36
2022/07/20 02:09:08;;;;;;;3.88;2.40;;;;;;;21.88;44.46;100211.41;5071846;28;20471;-37
2022/07/20 02:11:33;;;;;;;7.22;2.58;;;;;;;21.40;45.81;100216.91;5071348;28;20020;-37
2022/07/20 02:13:58;;;;;;;3.75;2.80;;;;;;;20.99;46.87;100208.56;5071145;28;20490;-36
2022/07/20 02:16:24;;;;;;;4.93;2.65;;;;;;;20.92;47.38;100213.38;5071383;28;20477;-35
2022/07/20 02:18:52;;;;;;;3.33;2.65;;;;;;;20.87;47.36;100213.34;5071472;28;20025;-36
2022/07/20 02:21:20;;;;;;;6.03;2.50;;;;;;;20.93;47.09;100208.78;5071571;28;20027;-37
2022/07/20 02:23:46;;;;;;;5.22;2.60;;;;;;;21.02;47.01;100210.75;5071207;28;20082;-37
2022/07/20 02:26:12;;;;;;;3.25;2.67;;;;;;;20.93;47.79;100217.72;5071318;28;20027;-37
2022/07/20 02:28:38;;;;;;;4.30;2.67;;;;;;;21.03;47.30;100211.56;5083878;28;20384;-37
2022/07/20 02:31:05;;;;;;;3.55;2.60;;;;;;;21.09;47.09;100208.63;5091674;28;20363;-36
2022/07/20 02:33:30;;;;;;;4.38;2.72;;;;;;;21.05;47.06;100201.28;5091097;28;20055;-36
2022/07/20 02:35:56;;;;;;;4.85;2.50;;;;;;;21.01;46.98;100197.47;5091558;28;20066;-36
2022/07/20 02:38:22;;;;;;;8.02;2.70;;;;;;;20.86;47.60;100196.28;5090698;28;20020;-37
2022/07/20 02:40:47;;;;;;;6.53;2.80;;;;;;;20.82;47.53;100199.78;5091218;28;20027;-37
2022/07/20 02:43:13;;;;;;;5.60;2.83;;;;;;;20.70;47.64;100192.69;5091060;28;20448;-37
2022/07/20 02:45:38;;;;;;;3.97;2.70;;;;;;;20.70;47.77;100203.50;5090723;28;20031;-36
2022/07/20 02:48:04;;;;;;;2.92;2.50;;;;;;;20.62;47.83;100204.00;5090595;28;20055;-36
2022/07/20 02:50:33;;;;;;;5.15;2.75;;;;;;;20.73;48.01;100201.34;5090893;28;20453;-36
2022/07/20 02:52:59;;;;;;;7.13;2.83;;;;;;;20.69;48.24;100203.75;5091089;28;20046;-36
2022/07/20 02:55:25;;;;;;;6.20;2.60;;;;;;;20.69;48.03;100211.88;5091036;28;20039;-36
2022/07/20 02:57:50;;;;;;;4.63;2.70;;;;;;;20.65;48.11;100211.56;5087640;28;20024;-36
2022/07/20 03:00:16;;;;;;;6.60;2.60;;;;;;;20.72;47.60;100208.66;5073775;28;20423;-36
2022/07/20 03:02:41;;;;;;;3.97;2.47;;;;;;;20.68;47.57;100215.66;5086305;28;20143;-36
2022/07/20 03:05:07;;;;;;;4.47;2.58;;;;;;;20.77;47.74;100214.09;5090638;28;20051;-37
2022/07/20 03:07:33;;;;;;;11.20;8.35;;;;;;;20.68;47.48;100210.25;5090713;28;20556;-37
2022/07/20 03:09:58;;;;;;;30.65;22.02;;;;;;;20.78;47.35;100206.81;5090676;28;20051;-36
2022/07/20 03:12:23;;;;;;;9.80;7.22;;;;;;;20.85;46.87;100216.31;5090957;28;20028;-36
2022/07/20 03:14:49;;;;;;;6.25;4.22;;;;;;;20.87;47.08;100207.94;5090196;28;20160;-37
2022/07/20 03:17:14;;;;;;;6.72;2.65;;;;;;;20.92;46.88;100209.84;5090793;28;20467;-36
2022/07/20 03:19:40;;;;;;;3.38;2.25;;;;;;;20.85;46.90;100212.81;5085546;28;20036;-36
2022/07/20 03:22:05;;;;;;;4.28;2.40;;;;;;;20.82;46.71;100213.31;5090681;28;20102;-36
2022/07/20 03:24:31;;;;;;;3.78;2.40;;;;;;;20.68;47.58;100205.66;5090582;28;20454;-36
2022/07/20 03:26:56;;;;;;;5.40;2.50;;;;;;;20.92;46.95;100207.16;5090623;28;20028;-36
2022/07/20 03:29:21;;;;;;;3.45;2.30;;;;;;;21.07;46.24;100207.25;5090198;28;20042;-36
2022/07/20 03:31:47;;;;;;;5.15;2.38;;;;;;;21.26;46.11;100208.44;5082334;28;20029;-35
2022/07/20 03:34:12;;;;;;;6.15;2.40;;;;;;;21.24;45.66;100204.38;5079362;28;20024;-36
2022/07/20 03:36:38;;;;;;;4.97;2.42;;;;;;;21.23;45.72;100205.47;5080535;28;20106;-36
2022/07/20 03:39:03;;;;;;;6.15;2.70;;;;;;;21.05;46.38;100210.22;5082467;28;20016;-35
2022/07/20 03:41:28;;;;;;;8.15;2.60;;;;;;;21.11;46.05;100204.84;5078652;28;20024;-37
2022/07/20 03:43:54;;;;;;;5.07;3.20;;;;;;;21.65;45.20;100207.28;5078417;28;20723;-35
2022/07/20 03:46:19;;;;;;;7.07;3.20;;;;;;;22.00;44.48;100208.44;5079963;28;20628;-37
2022/07/20 03:48:45;;;;;;;5.15;2.90;;;;;;;22.17;44.14;100211.72;5079976;28;20032;-37
2022/07/20 03:51:11;;;;;;;6.07;3.83;;;;;;;22.23;43.91;100180.81;5089619;28;20504;-37
2022/07/20 03:53:36;;;;;;;13.82;3.20;;;;;;;22.56;43.21;100197.69;5081357;28;20126;-36
2022/07/20 03:56:02;;;;;;;11.85;3.00;;;;;;;22.56;43.05;100213.97;5071907;28;20509;-36
2022/07/20 03:58:28;;;;;;;10.65;3.33;;;;;;;22.91;42.12;100220.44;5071154;28;20028;-36
2022/07/20 04:00:53;;;;;;;5.53;2.90;;;;;;;23.16;41.69;100222.31;5073600;28;20492;-36
2022/07/20 04:03:18;;;;;;;6.35;2.60;;;;;;;23.50;40.95;100216.22;5073099;28;20031;-37
2022/07/20 04:05:44;;;;;;;8.18;3.13;;;;;;;24.01;40.54;100217.91;5073692;28;20020;-37
2022/07/20 04:08:09;;;;;;;10.57;5.72;;;;;;;24.69;39.07;100230.72;5073448;28;20051;-36
2022/07/20 04:10:35;;;;;;;13.15;7.60;;;;;;;24.61;39.02;100227.81;5076146;28;20352;-36
2022/07/20 04:13:04;;;;;;;8.02;3.28;;;;;;;25.06;38.26;100223.84;5092890;28;20035;-35
2022/07/20 04:15:30;;;;;;;9.57;3.03;;;;;;;25.67;37.45;100227.78;5092705;28;20024;-37
2022/07/20 04:17:56;;;;;;;15.02;3.10;;;;;;;25.93;36.50;100231.00;5092629;28;20047;-35
2022/07/20 04:20:21;;;;;;;12.82;5.97;;;;;;;25.84;36.95;100235.47;5092721;28;20059;-38
2022/07/20 04:22:47;;;;;;;9.02;5.00;;;;;;;26.38;36.29;100238.78;5092647;28;20054;-35
2022/07/20 04:25:12;;;;;;;6.35;3.58;;;;;;;27.02;35.32;100224.63;5092444;28;20521;-37
2022/07/20 04:27:38;;;;;;;7.28;2.75;;;;;;;27.32;34.82;100234.16;5092061;28;20492;-36
2022/07/20 04:30:04;;;;;;;13.07;3.42;;;;;;;27.64;34.58;100243.34;5091966;28;20063;-37
2022/07/20 04:32:30;;;;;;;6.22;2.78;;;;;;;27.72;33.59;100241.81;5092453;28;20047;-37
2022/07/20 04:34:55;;;;;;;7.20;2.70;;;;;;;28.17;32.90;100237.28;5092678;28;20028;-37
2022/07/20 04:37:21;;;;;;;7.82;2.63;;;;;;;28.45;32.69;100232.50;5092639;28;20460;-37
2022/07/20 04:39:47;;;;;;;14.70;8.27;;;;;;;28.65;32.17;100230.41;5093015;28;20032;-36
2022/07/20 04:42:12;;;;;;;10.63;3.65;;;;;;;28.90;31.38;100244.56;5092668;28;20028;-38
2022/07/20 04:44:38;;;;;;;11.30;2.88;;;;;;;28.60;31.46;100241.50;5092348;28;20024;-36
2022/07/20 04:47:03;;;;;;;8.80;2.90;;;;;;;29.18;30.55;100236.97;5092559;28;20034;-36
2022/07/20 04:49:29;;;;;;;8.95;4.13;;;;;;;29.54;30.29;100225.81;5092497;28;20040;-37
2022/07/20 04:51:54;;;;;;;10.38;3.20;;;;;;;29.84;30.37;100228.00;5092440;28;20088;-37
2022/07/20 04:54:21;;;;;;;11.35;2.95;;;;;;;29.81;30.22;100223.94;5092179;28;20028;-37
2022/07/20 04:56:47;;;;;;;8.02;2.65;;;;;;;29.94;29.54;100231.22;5092393;28;20467;-37
2022/07/20 04:59:13;;;;;;;5.10;2.50;;;;;;;29.93;29.56;100234.28;5092636;28;20133;-38
2022/07/20 05:01:39;;;;;;;4.10;2.10;;;;;;;30.21;29.14;100232.84;5092402;28;20043;-36
2022/07/20 05:04:04;;;;;;;7.25;2.30;;;;;;;30.80;28.71;100229.50;5092371;28;20035;-37
2022/07/20 05:06:30;;;;;;;5.60;2.30;;;;;;;31.22;28.29;100228.09;5092328;28;20043;-37
2022/07/20 05:08:55;;;;;;;3.50;2.42;;;;;;;31.42;27.91;100226.56;5092506;28;20056;-37
2022/07/20 05:11:21;;;;;;;8.25;2.33;;;;;;;30.03;29.75;100228.50;5092218;28;20468;-36
2022/07/20 05:13:46;;;;;;;6.53;2.28;;;;;;;29.17;30.82;100222.47;5092145;28;20055;-38
2022/07/20 05:16:12;;;;;;;4.40;2.30;;;;;;;28.94;31.06;100231.84;5092118;28;20035;-36
2022/07/20 05:18:37;;;;;;;7.03;2.33;;;;;;;29.24;30.83;100232.97;5091862;28;20023;-36
2022/07/20 05:21:03;;;;;;;5.47;2.20;;;;;;;29.40;30.69;100233.38;5092072;28;20047;-37
2022/07/20 05:23:28;;;;;;;9.77;2.10;;;;;;;29.53;30.34;100226.13;5091663;28;20065;-37
2022/07/20 05:25:55;;;;;;;4.95;2.92;;;;;;;29.89;29.96;100233.31;5091647;28;20398;-37
2022/07/20 05:28:21;;;;;;;6.10;2.50;;;;;;;29.80;29.68;100233.31;5091231;28;20035;-37
2022/07/20 05:30:50;;;;;;;3.63;2.65;;;;;;;29.69;29.96;100221.81;5091630;28;20024;-37
2022/07/20 05:33:15;;;;;;;10.68;4.10;;;;;;;29.59;30.39;100227.59;5091674;28;20036;-37
2022/07/20 05:35:41;;;;;;;3.83;2.28;;;;;;;29.80;30.16;100236.84;5091579;28;20070;-37
2022/07/20 05:38:07;;;;;;;6.88;2.40;;;;;;;30.02;29.96;100235.91;5083699;28;20024;-37
2022/07/20 05:40:32;;;;;;;7.68;3.65;;;;;;;31.03;28.93;100226.56;5071418;28;20210;-37
2022/07/20 05:42:58;;;;;;;6.00;2.50;;;;;;;31.06;28.30;100230.59;5071457;28;20048;-37
2022/07/20 05:45:23;;;;;;;6.85;2.30;;;;;;;30.93;28.45;100240.66;5071419;28;20016;-37
2022/07/20 05:47:49;;;;;;;6.80;2.50;;;;;;;30.58;29.19;100232.50;5071086;28;20040;-37
2022/07/20 05:50:14;;;;;;;3.33;2.22;;;;;;;30.75;28.75;100237.94;5070746;28;20052;-37
2022/07/20 05:52:40;;;;;;;5.90;2.30;;;;;;;30.47;28.74;100239.47;5070911;28;20020;-37
2022/07/20 05:55:06;;;;;;;6.13;2.10;;;;;;;30.99;27.71;100239.34;5071011;28;20173;-36
2022/07/20 05:57:31;;;;;;;5.22;2.42;;;;;;;30.61;28.57;100237.31;5071293;28;20025;-36
2022/07/20 05:59:57;;;;;;;7.10;2.40;;;;;;;30.62;28.64;100233.47;5070767;28;20028;-36
2022/07/20 06:02:22;;;;;;;5.05;2.15;;;;;;;30.88;28.08;100229.81;5071152;28;20032;-37
2022/07/20 06:04:48;;;;;;;16.23;2.72;;;;;;;31.28;27.84;100233.09;5071199;28;20095;-36
2022/07/20 06:07:13;;;;;;;12.07;2.45;;;;;;;31.81;26.55;100227.28;5071577;28;20025;-37
2022/07/20 06:09:38;;;;;;;9.70;2.25;;;;;;;31.91;26.70;100227.72;5071250;28;20028;-36
2022/07/20 06:12:04;;;;;;;6.18;2.30;;;;;;;31.45;26.95;100229.41;5071106;28;20051;-36
2022/07/20 06:14:29;;;;;;;8.10;2.20;;;;;;;31.24;27.60;100231.31;5070972;28;20036;-37
2022/07/20 06:16:55;;;;;;;6.63;2.17;;;;;;;30.77;28.15;100229.38;5071233;28;20032;-37
2022/07/20 06:19:20;;;;;;;3.70;2.20;;;;;;;31.63;27.52;100232.13;5070805;28;20029;-37
2022/07/20 06:21:46;;;;;;;5.55;2.40;;;;;;;32.36;26.57;100233.66;5069630;28;20480;-37
2022/07/20 06:24:11;;;;;;;7.78;2.67;;;;;;;32.15;26.83;100229.00;5070280;28;20139;-37
2022/07/20 06:26:37;;;;;;;7.13;3.60;;;;;;;32.57;26.54;100242.72;5070959;28;20131;-38
2022/07/20 06:29:02;;;;;;;9.73;2.92;;;;;;;32.77;26.14;100234.72;5086442;28;20073;-37
2022/07/20 06:31:28;;;;;;;8.02;3.28;;;;;;;32.98;25.68;100243.72;5090512;28;20028;-37
2022/07/20 06:33:53;;;;;;;8.70;2.70;;;;;;;33.88;24.94;100241.06;5090329;28;20133;-37
2022/07/20 06:36:19;;;;;;;8.48;3.35;;;;;;;33.38;25.12;100245.84;5090822;28;20116;-36
2022/07/20 06:38:45;;;;;;;9.57;3.75;;;;;;;33.26;25.27;100229.28;5090801;28;20106;-36
2022/07/20 06:41:11;;;;;;;7.40;3.22;;;;;;;33.39;25.58;100239.16;5090644;28;20426;-37
2022/07/20 06:43:36;;;;;;;8.00;2.33;;;;;;;32.57;25.89;100237.19;5090268;28;20027;-37
2022/07/20 06:46:02;;;;;;;6.82;2.13;;;;;;;33.56;25.25;100232.59;5090416;28;20183;-37
2022/07/20 06:48:27;;;;;;;9.38;2.50;;;;;;;33.84;25.07;100235.44;5090378;28;20016;-37
2022/07/20 06:50:53;;;;;;;5.70;2.20;;;;;;;33.77;25.15;100235.22;5090320;28;20052;-37
2022/07/20 06:53:18;;;;;;;10.27;2.65;;;;;;;33.81;24.66;100233.38;5090260;28;20040;-37
2022/07/20 06:55:45;;;;;;;7.10;2.50;;;;;;;33.71;25.23;100228.34;5090424;28;20489;-37
2022/07/20 06:58:11;;;;;;;7.32;2.80;;;;;;;33.97;24.49;100227.94;5090238;28;20032;-37
2022/07/20 07:00:37;;;;;;;12.82;2.70;;;;;;;34.45;24.01;100225.34;5090487;28;20028;-37
2022/07/20 07:03:03;;;;;;;6.47;2.50;;;;;;;34.43;23.63;100222.13;5090053;28;20032;-37
2022/07/20 07:05:28;;;;;;;7.30;2.70;;;;;;;34.21;24.42;100218.75;5090497;28;20024;-36
2022/07/20 07:07:54;;;;;;;3.63;2.13;;;;;;;34.06;24.33;100219.50;5090571;28;20436;-36
2022/07/20 07:10:20;;;;;;;13.60;3.05;;;;;;;34.19;24.05;100220.28;5090663;28;20172;-37
2022/07/20 07:12:45;;;;;;;7.53;3.20;;;;;;;34.45;24.03;100220.63;5089690;28;20020;-36
2022/07/20 07:15:11;;;;;;;6.70;2.63;;;;;;;34.63;23.76;100218.34;5089808;28;20028;-36
2022/07/20 07:17:37;;;;;;;6.65;2.60;;;;;;;35.71;23.24;100223.72;5090323;28;20026;-36
2022/07/20 07:20:04;;;;;;;11.27;3.40;;;;;;;35.27;22.84;100212.84;5090379;28;20480;-36
2022/07/20 07:22:30;;;;;;;3.45;2.10;;;;;;;34.95;23.23;100207.31;5089967;28;20028;-36
2022/07/20 07:24:56;;;;;;;9.70;2.67;;;;;;;35.00;23.37;100209.00;5089721;28;20127;-36
2022/07/20 07:27:22;;;;;;;3.25;1.90;;;;;;;35.23;22.88;100215.53;5090078;28;20095;-37
2022/07/20 07:29:48;;;;;;;6.05;2.00;;;;;;;35.33;22.69;100211.41;5090094;28;20482;-37
2022/07/20 07:32:13;;;;;;;12.00;2.53;;;;;;;35.82;21.95;100210.91;5090024;28;20027;-37
2022/07/20 07:34:39;;;;;;;10.10;2.40;;;;;;;35.58;21.74;100200.09;5089782;28;20417;-38
2022/07/20 07:37:04;;;;;;;12.55;2.53;;;;;;;34.53;22.72;100210.56;5089493;28;20119;-38
2022/07/20 07:39:30;;;;;;;12.55;2.60;;;;;;;34.49;22.63;100204.13;5070165;28;20021;-36
2022/07/20 07:41:55;;;;;;;8.18;2.10;;;;;;;34.82;22.35;100203.03;5069654;28;20020;-39
2022/07/20 07:44:21;;;;;;;5.13;2.00;;;;;;;34.97;22.83;100204.97;5069006;28;20025;-38
2022/07/20 07:46:46;;;;;;;3.70;2.03;;;;;;;34.58;23.32;100199.25;5069135;28;20021;-38
2022/07/20 07:49:12;;;;;;;9.27;2.08;;;;;;;35.26;22.93;100204.91;5069694;28;20028;-38
2022/07/20 07:51:37;;;;;;;11.18;2.20;;;;;;;35.59;21.60;100204.47;5069001;28;20064;-37
2022/07/20 07:54:04;;;;;;;6.85;2.10;;;;;;;35.41;22.21;100202.13;5068882;28;20020;-37
2022/07/20 07:56:30;;;;;;;5.20;3.47;;;;;;;35.73;22.00;100204.78;5089652;28;20024;-38
2022/07/20 07:58:56;;;;;;;6.63;2.00;;;;;;;36.01;21.46;100195.50;5089850;28;20526;-38
2022/07/20 08:01:21;;;;;;;2.85;1.85;;;;;;;35.73;22.00;100198.47;5089672;28;20095;-38
2022/07/20 08:03:46;;;;;;;6.50;1.70;;;;;;;36.12;20.92;100195.69;5089395;28;20024;-37
2022/07/20 08:06:12;;;;;;;4.43;1.80;;;;;;;36.75;20.18;100191.75;5088980;28;20406;-38
2022/07/20 08:08:37;;;;;;;2.65;1.60;;;;;;;36.12;21.25;100190.97;5089332;28;20503;-38
2022/07/20 08:11:03;;;;;;;4.25;1.80;;;;;;;36.09;20.85;100185.34;5089568;28;20028;-38
2022/07/20 08:13:29;;;;;;;6.95;1.48;;;;;;;36.15;20.43;100181.09;5089110;28;20019;-37
2022/07/20 08:15:55;;;;;;;2.70;1.90;;;;;;;36.20;20.74;100183.63;5088362;28;20377;-36
2022/07/20 08:18:20;;;;;;;3.72;1.85;;;;;;;36.36;19.79;100180.75;5089073;28;20582;-37
2022/07/20 08:20:46;;;;;;;3.10;1.48;;;;;;;37.24;19.66;100165.97;5089453;28;20020;-37
2022/07/20 08:23:11;;;;;;;3.25;1.65;;;;;;;36.72;19.71;100178.63;5089025;28;20099;-36
2022/07/20 08:25:37;;;;;;;5.20;1.80;;;;;;;36.57;19.82;100166.47;5089308;28;20052;-36
2022/07/20 08:28:17;;;;;;;4.97;1.90;;;;;;;36.42;20.50;100173.72;5081765;28;20028;-36
2022/07/20 08:30:44;;;;;;;4.80;2.20;;;;;;;36.69;19.82;100171.03;5067568;28;20024;-37
2022/07/20 08:33:11;;;;;;;4.32;2.10;;;;;;;36.89;19.80;100171.78;5068848;28;20024;-37
2022/07/20 08:35:37;;;;;;;2.40;1.60;;;;;;;37.55;18.39;100170.38;5068637;28;20017;-37
2022/07/20 08:38:04;;;;;;;2.63;1.60;;;;;;;37.31;18.31;100165.28;5068647;28;20020;-37
2022/07/20 08:40:30;;;;;;;6.22;1.75;;;;;;;36.65;18.87;100170.16;5068711;28;20020;-37
2022/07/20 08:42:56;;;;;;;3.25;1.60;;;;;;;36.14;18.98;100165.69;5068811;28;20016;-37
2022/07/20 08:45:22;;;;;;;7.90;1.80;;;;;;;36.00;19.72;100161.47;5071651;28;20329;-37
2022/07/20 08:47:49;;;;;;;2.60;1.50;;;;;;;35.63;18.42;100159.09;5072612;28;20448;-37
2022/07/20 08:50:21;;;;;;;5.50;1.60;;;;;;;35.40;18.91;100155.44;5072182;28;20051;-37
2022/07/20 08:52:46;;;;;;;4.53;1.70;;;;;;;35.55;19.76;100153.78;5072744;28;20043;-37
2022/07/20 08:55:12;;;;;;;4.00;1.60;;;;;;;35.89;19.01;100151.31;5072155;28;20448;-37
2022/07/20 08:57:37;;;;;;;5.57;1.60;;;;;;;36.02;19.46;100141.69;5072503;28;20032;-37
2022/07/20 09:00:04;;;;;;;4.38;1.80;;;;;;;36.19;19.61;100148.78;5072964;28;20489;-37
2022/07/20 09:02:48;;;;;;;4.22;1.50;;;;;;;36.17;17.78;100146.34;5071747;28;20051;-37
2022/07/20 09:05:13;;;;;;;4.75;1.50;;;;;;;35.47;18.92;100140.94;5072194;28;20157;-37
2022/07/20 09:07:41;;;;;;;4.03;1.70;;;;;;;35.21;19.28;100134.88;5072257;28;20099;-37
2022/07/20 09:10:12;;;;;;;5.63;1.63;;;;;;;35.72;19.19;100135.97;5072472;28;20103;-38
2022/07/20 09:13:01;;;;;;;5.70;1.65;;;;;;;34.96;19.50;100134.28;5071961;28;20503;-37
2022/07/20 09:15:47;;;;;;;4.85;1.60;;;;;;;34.31;19.83;100137.41;5058975;28;20401;-37
2022/07/20 09:18:14;;;;;;;2.67;1.63;;;;;;;34.13;19.51;100134.13;5072089;28;20385;-36
2022/07/20 09:21:01;;;;;;;5.20;1.80;;;;;;;34.07;20.25;100136.31;5072365;28;20032;-37
2022/07/20 09:23:33;;;;;;;5.82;1.70;;;;;;;33.63;20.31;100128.00;5071555;28;20020;-37
2022/07/20 09:26:07;;;;;;;3.55;1.60;;;;;;;33.38;21.22;100121.72;5071863;28;20099;-38
2022/07/20 09:28:52;;;;;;;6.68;1.60;;;;;;;33.69;20.46;100114.78;5083779;28;20070;-42
2022/07/20 09:31:33;;;;;;;3.78;1.58;;;;;;;33.18;21.28;100117.97;5092018;28;20020;-36
2022/07/20 09:34:07;;;;;;;9.57;3.15;;;;;;;33.29;21.03;100110.81;5091530;28;20495;-37
2022/07/20 09:36:35;;;;;;;3.50;1.70;;;;;;;32.98;21.40;100105.91;5091881;28;20028;-37
2022/07/20 09:39:12;;;;;;;5.40;1.60;;;;;;;32.93;21.99;100112.44;5076191;28;20100;-37
2022/07/20 09:41:39;;;;;;;5.55;1.70;;;;;;;33.20;22.07;100112.13;5071359;28;20029;-37
2022/07/20 09:44:06;;;;;;;3.55;1.52;;;;;;;33.21;21.84;100103.50;5070819;28;20085;-38
2022/07/20 09:46:34;;;;;;;2.65;1.70;;;;;;;33.52;21.15;100106.75;5071539;28;20028;-38
2022/07/20 09:49:10;;;;;;;2.38;1.35;;;;;;;33.20;21.72;100106.59;5071099;28;20031;-38
2022/07/20 09:51:38;;;;;;;3.97;1.92;;;;;;;33.49;21.27;100106.31;5071506;28;20045;-36
2022/07/20 09:54:10;;;;;;;6.10;1.58;;;;;;;33.43;21.21;100107.69;5070632;28;20020;-37
2022/07/20 09:56:41;;;;;;;4.22;1.70;;;;;;;32.82;21.89;100099.50;5070268;28;20538;-37
2022/07/20 09:59:08;;;;;;;3.30;1.60;;;;;;;32.76;22.22;100100.88;5071183;28;20043;-37
2022/07/20 10:01:36;;;;;;;4.32;2.08;;;;;;;33.31;22.08;100091.19;5071142;28;20021;-36
2022/07/20 10:04:04;;;;;;;16.25;8.70;;;;;;;33.91;22.06;100101.56;5071340;28;20017;-36
2022/07/20 10:06:30;;;;;;;2.55;1.70;;;;;;;34.11;20.45;100092.25;5070788;28;20044;-37
2022/07/20 10:08:56;;;;;;;3.92;1.70;;;;;;;34.07;20.80;100086.63;5070977;28;20028;-37
2022/07/20 10:11:24;;;;;;;4.18;1.70;;;;;;;34.14;20.24;100091.56;5070970;28;20469;-37
2022/07/20 10:13:52;;;;;;;15.23;13.10;;;;;;;34.19;20.24;100080.25;5070565;28;20465;-36
2022/07/20 10:16:39;;;;;;;12.52;10.43;;;;;;;34.12;21.11;100082.00;5070232;28;20025;-38
2022/07/20 10:19:06;;;;;;;3.70;1.83;;;;;;;34.60;21.37;100069.84;5071318;28;20021;-36
2022/07/20 10:21:50;;;;;;;4.68;1.80;;;;;;;35.10;20.75;100080.47;5070449;28;20041;-37
2022/07/20 10:24:30;;;;;;;4.03;1.67;;;;;;;35.28;20.01;100067.88;5070624;28;20013;-38
2022/07/20 10:27:02;;;;;;;2.55;1.80;;;;;;;35.41;20.22;100069.34;5070444;28;20484;-36
2022/07/20 10:29:29;;;;;;;2.88;1.70;;;;;;;35.52;20.14;100069.53;5090480;28;20024;-36
2022/07/20 10:32:00;;;;;;;7.18;1.70;;;;;;;35.37;19.74;100064.88;5091099;28;20440;-37
2022/07/20 10:34:34;;;;;;;2.33;1.52;;;;;;;35.12;19.83;100056.81;5090672;28;20108;-37
2022/07/20 10:37:22;;;;;;;5.22;1.73;;;;;;;34.74;20.51;100049.25;5090818;28;20024;-37
2022/07/20 10:39:47;;;;;;;3.17;1.70;;;;;;;35.12;19.45;100044.97;5070079;28;20020;-37
2022/07/20 10:42:28;;;;;;;2.50;1.52;;;;;;;35.13;20.89;100041.84;5070586;28;20135;-37
2022/07/20 10:44:55;;;;;;;4.35;1.90;;;;;;;35.34;20.00;100035.16;5070702;28;20024;-37
2022/07/20 10:47:44;;;;;;;8.00;2.13;;;;;;;35.16;20.70;100029.25;5070120;28;20032;-36
2022/07/20 10:50:36;;;;;;;5.13;1.80;;;;;;;35.56;19.73;100028.09;5070351;28;20091;-37
2022/07/20 10:53:10;;;;;;;3.25;1.80;;;;;;;35.80;19.10;100032.53;5069890;28;20038;-37
2022/07/20 10:55:36;;;;;;;3.55;1.67;;;;;;;35.56;19.57;100025.34;5070140;28;20028;-37
2022/07/20 10:58:10;;;;;;;3.63;1.88;;;;;;;35.84;20.26;100025.09;5070278;28;20031;-38
2022/07/20 11:00:40;;;;;;;6.10;1.70;;;;;;;35.43;19.71;100021.91;5070399;28;20468;-38
2022/07/20 11:03:11;;;;;;;4.95;1.70;;;;;;;34.93;20.44;100013.38;5070119;28;20404;-37
2022/07/20 11:05:37;;;;;;;4.22;1.60;;;;;;;35.02;20.32;100016.72;5070046;28;20050;-38
2022/07/20 11:08:07;;;;;;;7.30;1.90;;;;;;;34.84;20.55;100016.34;5069543;28;20024;-37
2022/07/20 11:10:33;;;;;;;4.20;1.67;;;;;;;34.40;20.98;100015.69;5069931;28;20521;-38
2022/07/20 11:13:00;;;;;;;4.47;1.70;;;;;;;34.16;20.66;100006.44;5070352;28;20076;-37
2022/07/20 11:15:47;;;;;;;2.10;1.75;;;;;;;34.44;20.82;100000.00;5070471;28;20046;-37
2022/07/20 11:18:22;;;;;;;3.97;1.83;;;;;;;34.60;20.84;100002.75;5070235;28;20100;-36
2022/07/20 11:21:03;;;;;;;4.72;1.73;;;;;;;33.72;21.56;99992.69;5069937;28;20016;-42
2022/07/20 11:23:40;;;;;;;4.70;3.30;;;;;;;34.20;21.14;99996.28;5070093;28;20481;-43
2022/07/20 11:26:07;;;;;;;4.18;2.40;;;;;;;34.80;21.18;99987.81;5069964;28;20077;-44
2022/07/20 11:28:42;;;;;;;3.00;1.70;;;;;;;34.69;20.66;99989.56;5069890;28;20016;-43